Time;durP1;ratioP1;P1;durP2;ratioP2;P2;SDS_P1;SDS_P2;PMS_P1;PMS_P2;Temp;Humidity;BMP_temperature;BMP_pressure;BME280_temperature;BME280_humidity;BME280_pressure;Samples;Min_cycle;Max_cycle;Signal;HPM_P1;HPM_P2
2022/12/28 00:01:12;;;;;;;9.40;4.63;;;;;;;-141.97;60.06;47765.09;5012594;28;20258;-84
2022/12/28 00:03:37;;;;;;;12.27;5.90;;;;;;;-141.97;60.12;47763.19;5020732;28;20285;-84
2022/12/28 00:06:04;;;;;;;8.77;5.03;;;;;;;-141.97;59.95;47772.78;5015306;28;20533;-84
2022/12/28 00:08:29;;;;;;;9.53;5.37;;;;;;;-141.97;59.82;47653.63;5031618;28;20174;-85
2022/12/28 00:11:03;;;;;;;6.07;4.20;;;;;;;-141.97;59.45;47895.81;5031802;28;20174;-83
2022/12/28 00:13:29;;;;;;;6.83;3.63;;;;;;;-141.97;59.17;47738.19;5029112;28;20169;-84
2022/12/28 00:15:55;;;;;;;7.90;4.40;;;;;;;-141.97;59.03;47738.19;5032188;28;20170;-84
2022/12/28 00:18:20;;;;;;;7.67;4.57;;;;;;;-141.97;58.69;47761.25;5033131;28;20216;-83
2022/12/28 00:20:58;;;;;;;8.93;4.50;;;;;;;-141.97;57.98;47757.41;5032724;28;20184;-82
2022/12/28 00:23:24;;;;;;;7.80;4.97;;;;;;;-141.97;57.58;47776.63;5032991;28;20214;-83
2022/12/28 00:25:50;;;;;;;7.50;4.60;;;;;;;-141.97;57.04;47747.81;5033154;28;20284;-83
2022/12/28 00:28:15;;;;;;;8.27;4.80;;;;;;;-141.97;57.20;47847.75;5032730;28;20169;-83
2022/12/28 00:30:41;;;;;;;10.17;4.80;;;;;;;-141.97;57.03;47782.41;5032761;28;20194;-83
2022/12/28 00:33:06;;;;;;;9.27;4.70;;;;;;;-141.97;57.26;47736.28;5032524;28;20235;-83
2022/12/28 00:35:31;;;;;;;10.10;5.60;;;;;;;-141.97;57.40;47743.97;5032576;28;20170;-84
2022/12/28 00:37:57;;;;;;;12.60;6.23;;;;;;;-141.97;57.25;47745.88;5032550;28;20750;-83
2022/12/28 00:40:22;;;;;;;11.60;6.17;;;;;;;-141.97;57.57;47761.25;5033027;28;20158;-84
2022/12/28 00:42:48;;;;;;;9.07;5.60;;;;;;;-141.97;57.29;47745.88;5032333;28;20618;-84
2022/12/28 00:45:13;;;;;;;13.17;6.70;;;;;;;-141.97;57.42;47782.41;5032451;28;20201;-84
2022/12/28 00:47:39;;;;;;;9.13;5.73;;;;;;;-141.97;57.65;47772.78;5014770;28;20166;-83
2022/12/28 00:50:04;;;;;;;8.73;5.60;;;;;;;-141.97;57.62;47761.25;5032243;28;20200;-83
2022/12/28 00:52:30;;;;;;;8.87;5.40;;;;;;;-141.97;57.82;47772.78;5032490;28;20615;-83
2022/12/28 00:54:55;;;;;;;8.97;5.63;;;;;;;-141.97;57.46;47768.94;5035951;28;20217;-83
2022/12/28 00:57:20;;;;;;;8.33;5.50;;;;;;;-141.97;57.98;47730.50;5036202;28;20170;-83
2022/12/28 00:59:46;;;;;;;8.67;5.17;;;;;;;-141.97;58.23;47678.63;5032761;28;20209;-83
2022/12/28 01:02:11;;;;;;;7.47;5.07;;;;;;;-141.97;58.36;47738.19;5031101;28;20164;-83
2022/12/28 01:04:37;;;;;;;8.60;5.10;;;;;;;-141.97;58.79;47749.72;5031876;28;20193;-83
2022/12/28 01:07:02;;;;;;;8.07;4.57;;;;;;;-141.97;59.19;47745.88;5032185;28;20162;-83
2022/12/28 01:09:27;;;;;;;7.47;4.40;;;;;;;-141.97;59.41;47749.72;5032221;28;20208;-84
2022/12/28 01:11:53;;;;;;;8.40;4.63;;;;;;;-141.97;58.82;47763.19;5032187;28;20253;-83
2022/12/28 01:14:18;;;;;;;6.50;4.20;;;;;;;-141.97;58.55;47738.19;5031844;28;20292;-83
2022/12/28 01:16:43;;;;;;;8.53;4.53;;;;;;;-141.97;58.23;47790.09;5031847;28;20185;-83
2022/12/28 01:19:13;;;;;;;6.40;3.67;;;;;;;-141.97;57.58;47732.44;5017440;28;20210;-83
2022/12/28 01:21:39;;;;;;;7.47;4.43;;;;;;;-141.97;57.02;47761.25;5076740;28;20172;-82
2022/12/28 01:24:07;;;;;;;6.67;4.20;;;;;;;-141.97;56.88;47745.88;5064343;28;20192;-83
2022/12/28 01:26:33;;;;;;;5.27;4.00;;;;;;;-141.97;56.86;47845.84;5052789;28;20687;-84
2022/12/28 01:28:58;;;;;;;6.03;4.07;;;;;;;-141.97;56.00;47705.53;5052118;28;20161;-82
2022/12/28 01:31:24;;;;;;;10.40;5.40;;;;;;;-141.97;56.13;47809.31;5052466;28;20177;-83
2022/12/28 01:33:50;;;;;;;6.60;4.20;;;;;;;-141.97;55.64;47757.41;5052873;28;20233;-83
2022/12/28 01:36:18;;;;;;;7.90;4.70;;;;;;;-141.97;55.24;47730.50;5052429;28;20239;-83
2022/12/28 01:38:44;;;;;;;8.70;4.20;;;;;;;-141.97;55.52;47792.03;5062656;28;20219;-83
2022/12/28 01:41:13;;;;;;;7.60;4.30;;;;;;;-141.97;54.93;47736.28;5059167;28;20329;-82
2022/12/28 01:43:45;;;;;;;6.63;4.20;;;;;;;-141.97;54.86;47740.13;5056618;28;20204;-83
2022/12/28 01:46:23;;;;;;;6.73;4.00;;;;;;;-141.97;54.71;47734.34;5052035;28;20683;-83
2022/12/28 01:48:56;;;;;;;9.43;4.20;;;;;;;-141.97;54.40;47755.50;5051320;28;20508;-83
2022/12/28 01:51:24;;;;;;;7.03;4.37;;;;;;;-141.97;54.51;47745.88;5051336;28;20172;-83
2022/12/28 01:53:53;;;;;;;6.77;4.27;;;;;;;-141.97;54.84;47853.53;5051221;28;20168;-84
2022/12/28 01:56:20;;;;;;;10.53;5.13;;;;;;;-141.97;54.58;47747.81;5049483;28;20557;-84
2022/12/28 01:58:47;;;;;;;7.63;4.80;;;;;;;-141.97;55.09;47753.56;5051508;28;20196;-83
2022/12/28 02:01:12;;;;;;;9.30;5.27;;;;;;;-141.97;55.03;47743.97;5051451;28;20640;-83
2022/12/28 02:03:38;;;;;;;8.13;5.30;;;;;;;-141.97;55.41;47749.72;5051308;28;20196;-83
2022/12/28 02:06:08;;;;;;;9.27;5.30;;;;;;;-141.97;55.94;47730.50;5051105;28;20165;-83
2022/12/28 02:08:45;;;;;;;8.07;5.43;;;;;;;-141.97;56.13;47738.19;5051119;28;20161;-83
2022/12/28 02:11:15;;;;;;;8.77;5.00;;;;;;;-141.97;56.02;47726.66;5050675;28;20539;-84
2022/12/28 02:13:43;;;;;;;7.80;4.80;;;;;;;-141.97;56.48;47755.50;5051190;28;20494;-83
2022/12/28 02:16:10;;;;;;;6.97;4.60;;;;;;;-141.97;56.62;47749.72;5050788;28;20192;-83
2022/12/28 02:18:36;;;;;;;6.83;4.20;;;;;;;-141.97;56.33;47734.34;5050753;28;20669;-84
2022/12/28 02:21:27;;;;;;;7.27;4.27;;;;;;;-141.97;56.11;47745.88;5051154;28;20167;-84
2022/12/28 02:24:16;;;;;;;5.43;3.70;;;;;;;-141.97;55.19;47768.94;5050942;28;20193;-84
2022/12/28 02:26:47;;;;;;;6.00;3.60;;;;;;;-141.97;54.76;47768.94;5050929;28;20161;-83
2022/12/28 02:29:13;;;;;;;7.13;4.00;;;;;;;-141.97;53.96;47768.94;5051182;28;20626;-84
2022/12/28 02:31:43;;;;;;;6.30;3.43;;;;;;;-141.97;53.98;47757.41;5032793;28;20180;-83
2022/12/28 02:34:37;;;;;;;6.17;3.67;;;;;;;-141.97;53.62;47742.03;5050658;28;20161;-83
2022/12/28 02:37:12;;;;;;;6.13;3.63;;;;;;;-141.97;53.34;47745.88;5050748;28;20602;-84
2022/12/28 02:39:46;;;;;;;6.73;3.60;;;;;;;-141.97;53.33;47770.88;5050880;28;20169;-83
2022/12/28 02:42:12;;;;;;;5.43;3.70;;;;;;;-141.97;53.23;47663.22;5051244;28;20219;-84
2022/12/28 02:50:18;;;;;;;6.37;3.50;;;;;;;-141.97;52.60;47788.19;5009470;28;20195;-84
2022/12/28 02:53:03;;;;;;;6.40;3.60;;;;;;;-141.97;52.36;47765.09;5009738;28;20247;-83
2022/12/28 02:58:48;;;;;;;5.93;3.63;;;;;;;-141.97;51.89;47768.94;5008926;28;20244;-83
2022/12/28 03:01:55;;;;;;;4.77;3.17;;;;;;;-141.97;52.07;47722.81;4931334;29;20193;-83
2022/12/28 03:04:36;;;;;;;6.53;3.70;;;;;;;-141.97;51.47;47734.34;4874790;29;20226;-83
2022/12/28 03:10:27;;;;;;;5.60;3.20;;;;;;;-141.97;51.13;47761.25;4878941;29;20601;-83
2022/12/28 03:13:42;;;;;;;6.20;3.63;;;;;;;-141.97;50.92;47724.75;4878568;29;20219;-84
2022/12/28 03:16:17;;;;;;;11.13;3.77;;;;;;;-141.97;50.81;47730.50;4859835;29;20188;-82
2022/12/28 03:32:51;;;;;;;4.50;2.93;;;;;;;-141.97;50.87;47749.72;4878160;29;20744;-83
2022/12/28 03:35:19;;;;;;;5.60;3.67;;;;;;;-141.97;51.30;47788.19;4877820;29;20171;-84
2022/12/28 03:38:06;;;;;;;6.67;3.90;;;;;;;-141.97;51.21;47749.72;4898999;29;20235;-83
2022/12/28 03:40:48;;;;;;;6.27;3.83;;;;;;;-141.97;51.12;47782.41;4977480;28;20187;-84
2022/12/28 03:43:44;;;;;;;5.57;3.53;;;;;;;-141.97;51.53;47740.13;4975932;28;20234;-83
2022/12/28 03:46:12;;;;;;;5.57;3.80;;;;;;;-141.97;51.72;47724.75;4992213;28;20278;-83
2022/12/28 03:48:39;;;;;;;7.07;4.17;;;;;;;-141.97;51.33;47724.75;4992428;28;20180;-84
2022/12/28 03:51:05;;;;;;;6.80;3.57;;;;;;;-141.97;51.50;47768.94;5013585;28;20268;-83
2022/12/28 03:53:40;;;;;;;5.23;3.60;;;;;;;-141.97;51.87;47743.97;5053457;28;20240;-84
2022/12/28 03:56:26;;;;;;;6.40;3.53;;;;;;;-141.97;52.36;47763.19;5053676;28;20549;-83
2022/12/28 03:58:53;;;;;;;6.73;4.00;;;;;;;-141.97;52.06;47709.38;5053280;28;20177;-84
2022/12/28 04:01:19;;;;;;;6.37;3.50;;;;;;;-141.97;52.14;47753.56;5053314;28;20225;-85
2022/12/28 04:03:44;;;;;;;6.60;3.70;;;;;;;-141.97;52.10;47738.19;5053092;28;20243;-83
2022/12/28 04:06:17;;;;;;;5.07;3.60;;;;;;;-141.97;52.04;47768.94;5053448;28;20165;-84
2022/12/28 04:08:44;;;;;;;6.50;3.80;;;;;;;-141.97;52.12;47784.34;5048471;28;20544;-84
2022/12/28 04:11:10;;;;;;;7.37;4.37;;;;;;;-141.97;51.91;47755.50;5032349;28;20186;-84
2022/12/28 04:13:36;;;;;;;28.00;12.50;;;;;;;-141.97;51.71;47751.66;5033433;28;20202;-84
2022/12/28 04:16:08;;;;;;;19.43;8.43;;;;;;;-141.97;52.00;47745.88;5033227;28;20173;-83
2022/12/28 04:18:34;;;;;;;10.27;4.17;;;;;;;-141.97;52.10;47724.75;5032067;28;20244;-83
2022/12/28 04:21:00;;;;;;;12.43;5.47;;;;;;;-141.97;52.52;47734.34;5033143;28;20162;-83
2022/12/28 04:23:26;;;;;;;8.33;4.80;;;;;;;-141.97;52.77;47761.25;5032824;28;20662;-84
2022/12/28 04:26:04;;;;;;;9.57;5.20;;;;;;;-141.97;52.59;47703.59;5032593;28;20177;-83
2022/12/28 04:28:30;;;;;;;9.80;5.53;;;;;;;-141.97;52.83;47705.53;5031433;28;20257;-83
2022/12/28 04:30:56;;;;;;;8.17;4.40;;;;;;;-141.97;52.51;47736.28;5014936;28;20181;-83
2022/12/28 04:33:22;;;;;;;7.33;4.27;;;;;;;-141.97;52.81;47753.56;5015056;28;20170;-83
2022/12/28 04:35:48;;;;;;;7.60;3.90;;;;;;;-141.97;52.37;47745.88;5032788;28;20254;-84
2022/12/28 04:38:13;;;;;;;7.53;4.27;;;;;;;-141.97;52.63;47718.97;5032177;28;20670;-84
2022/12/28 04:40:39;;;;;;;6.40;4.03;;;;;;;-141.97;52.67;47717.06;5032887;28;20582;-84
2022/12/28 04:43:04;;;;;;;7.80;4.60;;;;;;;-141.97;52.98;47780.47;5032206;28;20178;-84
2022/12/28 04:45:29;;;;;;;6.17;4.17;;;;;;;-141.97;52.70;47799.72;5032467;28;20170;-84
2022/12/28 04:47:56;;;;;;;7.93;4.50;;;;;;;-141.97;53.05;47757.41;5036722;28;20174;-84
2022/12/28 04:50:22;;;;;;;7.63;4.73;;;;;;;-141.97;52.83;47718.97;5036394;28;20245;-84
2022/12/28 04:52:47;;;;;;;7.87;4.23;;;;;;;-141.97;52.83;47784.34;5033127;28;20267;-84
2022/12/28 04:55:13;;;;;;;6.60;4.00;;;;;;;-141.97;52.83;47759.34;5032747;28;20166;-84
2022/12/28 04:57:38;;;;;;;6.17;4.27;;;;;;;-141.97;53.05;47751.66;5033039;28;20162;-84
2022/12/28 05:00:04;;;;;;;11.47;4.67;;;;;;;-141.97;52.57;47840.06;5032525;28;20166;-84
2022/12/28 05:02:30;;;;;;;6.17;3.93;;;;;;;-141.97;53.04;47745.88;5032381;28;20253;-83
2022/12/28 05:04:55;;;;;;;6.83;3.97;;;;;;;-141.97;52.86;47624.78;5031811;28;20284;-85
2022/12/28 05:07:21;;;;;;;7.07;4.20;;;;;;;-141.97;53.55;47653.63;5031719;28;20168;-83
2022/12/28 05:09:46;;;;;;;6.67;3.97;;;;;;;-141.97;54.24;47792.03;5031781;28;20162;-85
2022/12/28 05:12:12;;;;;;;6.90;3.97;;;;;;;-141.97;54.68;47843.91;5032164;28;20158;-83
2022/12/28 05:14:37;;;;;;;13.03;7.87;;;;;;;-141.97;54.95;47843.91;5047550;28;20530;-85
2022/12/28 05:17:03;;;;;;;12.37;7.30;;;;;;;-141.97;55.86;47701.69;5047533;28;20277;-83
2022/12/28 05:19:28;;;;;;;6.97;4.77;;;;;;;-141.97;56.08;47732.44;5056603;28;20225;-83
2022/12/28 05:21:54;;;;;;;8.07;4.60;;;;;;;-141.97;56.09;47713.22;5051117;28;20518;-84
2022/12/28 05:24:19;;;;;;;8.20;4.47;;;;;;;-141.97;55.81;47838.16;5032762;28;20198;-84
2022/12/28 05:26:45;;;;;;;7.80;4.53;;;;;;;-141.97;56.18;47826.63;5031857;28;20243;-84
2022/12/28 05:29:10;;;;;;;7.13;4.80;;;;;;;-141.97;55.90;47688.22;5031475;28;20154;-84
2022/12/28 05:31:35;;;;;;;9.33;5.60;;;;;;;-141.97;56.13;47740.13;5029808;28;21275;-84
2022/12/28 05:34:01;;;;;;;13.03;7.97;;;;;;;-141.97;56.35;47753.56;5032187;28;20220;-84
2022/12/28 05:36:27;;;;;;;27.57;15.43;;;;;;;-141.97;55.95;47745.88;5049886;28;20166;-84
2022/12/28 05:38:54;;;;;;;74.33;39.43;;;;;;;-141.97;55.36;47734.34;5055255;28;20225;-84
2022/12/28 05:41:21;;;;;;;143.17;72.27;;;;;;;-141.97;55.64;47703.59;5033047;28;20606;-84
2022/12/28 05:43:50;;;;;;;217.63;110.20;;;;;;;-141.97;55.48;47768.94;5031218;28;20202;-86
2022/12/28 05:46:19;;;;;;;128.83;67.93;;;;;;;-141.97;55.30;47711.28;5029731;28;20182;-83
2022/12/28 05:48:45;;;;;;;199.50;93.87;;;;;;;-141.97;55.38;47753.56;5031407;28;20170;-83
2022/12/28 05:51:13;;;;;;;46.73;24.37;;;;;;;-141.97;55.46;47767.03;5031346;28;20247;-83
2022/12/28 05:53:40;;;;;;;21.23;10.80;;;;;;;-141.97;55.72;47784.34;5031087;28;20649;-84
2022/12/28 05:56:12;;;;;;;15.40;8.53;;;;;;;-141.97;55.52;47767.03;5031133;28;20235;-84
2022/12/28 05:58:38;;;;;;;14.60;7.27;;;;;;;-141.97;55.29;47749.72;5028799;28;20166;-84
2022/12/28 06:01:15;;;;;;;9.30;5.53;;;;;;;-141.97;55.13;47745.88;5031198;28;20296;-84
2022/12/28 06:03:42;;;;;;;10.27;5.97;;;;;;;-141.97;55.50;47736.28;5013439;28;20580;-83
2022/12/28 06:06:12;;;;;;;9.03;5.33;;;;;;;-141.97;55.50;47730.50;5031141;28;20257;-84
2022/12/28 06:08:39;;;;;;;9.57;6.23;;;;;;;-141.97;55.26;47745.88;5025080;28;20181;-84
2022/12/28 06:11:07;;;;;;;11.13;5.87;;;;;;;-141.97;55.75;47734.34;5029232;28;20189;-83
2022/12/28 06:13:34;;;;;;;20.47;8.90;;;;;;;-141.97;55.62;47655.53;5009805;28;20312;-84
2022/12/28 06:16:15;;;;;;;15.07;7.63;;;;;;;-141.97;55.38;47761.25;5023842;28;20562;-84
2022/12/28 06:18:41;;;;;;;24.07;12.37;;;;;;;-141.97;54.95;47765.09;5031617;28;20166;-84
2022/12/28 06:21:10;;;;;;;16.37;7.43;;;;;;;-141.97;55.05;47736.28;5031199;28;20555;-84
2022/12/28 06:23:36;;;;;;;17.53;8.77;;;;;;;-141.97;54.86;47711.28;5031041;28;20194;-84
2022/12/28 06:26:03;;;;;;;15.30;8.57;;;;;;;-141.97;55.23;47670.91;5030891;28;20181;-84
2022/12/28 06:28:29;;;;;;;13.73;8.47;;;;;;;-141.97;55.01;47786.25;5030966;28;20652;-84
2022/12/28 06:31:22;;;;;;;14.37;7.47;;;;;;;-141.97;55.69;47707.44;5031332;28;20173;-84
2022/12/28 06:33:52;;;;;;;14.50;7.73;;;;;;;-141.97;55.78;47857.38;5009018;28;20195;-84
2022/12/28 06:36:20;;;;;;;15.07;9.03;;;;;;;-141.97;55.48;47742.03;5009295;28;20270;-82
2022/12/28 06:38:47;;;;;;;13.67;8.77;;;;;;;-141.97;55.44;47715.13;5010443;28;20286;-84
2022/12/28 06:41:14;;;;;;;16.20;9.13;;;;;;;-141.97;55.18;47742.03;5011146;28;20198;-85
2022/12/28 06:43:41;;;;;;;11.43;7.70;;;;;;;-141.97;54.47;47701.69;5013772;28;20205;-84
2022/12/28 06:46:07;;;;;;;16.47;10.00;;;;;;;-141.97;54.31;47765.09;5013203;28;20694;-84
2022/12/28 06:48:34;;;;;;;31.43;17.17;;;;;;;-141.97;54.21;47743.97;5013075;28;20189;-83
2022/12/28 06:51:02;;;;;;;25.53;15.23;;;;;;;-141.97;54.32;47718.97;5014234;28;20195;-84
2022/12/28 06:53:31;;;;;;;37.63;20.67;;;;;;;-141.97;54.39;47753.56;5013776;28;20249;-84
2022/12/28 06:55:59;;;;;;;37.03;20.03;;;;;;;-141.97;54.06;47753.56;5013424;28;20197;-83
2022/12/28 06:58:26;;;;;;;52.77;24.57;;;;;;;-141.97;54.48;47757.41;5013549;28;20226;-84
2022/12/28 07:00:52;;;;;;;89.53;42.93;;;;;;;-141.97;54.80;47722.81;5013159;28;20163;-84
2022/12/28 07:03:18;;;;;;;84.90;41.67;;;;;;;-141.97;54.52;47742.03;5017445;28;20198;-84
2022/12/28 07:05:43;;;;;;;61.27;33.90;;;;;;;-141.97;54.38;47753.56;5021900;28;20182;-83
2022/12/28 07:08:09;;;;;;;58.87;31.07;;;;;;;-141.97;54.44;47715.13;5021969;28;20252;-84
2022/12/28 07:10:36;;;;;;;59.83;33.10;;;;;;;-141.97;53.66;47765.09;5027064;28;20198;-85
2022/12/28 07:13:02;;;;;;;89.13;44.07;;;;;;;-141.97;53.62;47722.81;5033588;28;20166;-83
2022/12/28 07:15:28;;;;;;;74.13;36.33;;;;;;;-141.97;53.83;47753.56;5019834;28;20634;-83
2022/12/28 07:17:53;;;;;;;56.30;27.00;;;;;;;-141.97;53.83;47838.16;5035534;28;20177;-84
2022/12/28 07:20:18;;;;;;;54.27;27.27;;;;;;;-141.97;53.48;47784.34;5036166;28;20184;-83
2022/12/28 07:22:44;;;;;;;43.40;20.83;;;;;;;-141.97;53.44;47759.34;5035683;28;20602;-84
2022/12/28 07:25:10;;;;;;;28.93;15.37;;;;;;;-141.97;53.40;47765.09;5039219;28;20204;-84
2022/12/28 07:27:35;;;;;;;15.87;7.53;;;;;;;-141.97;54.38;47663.22;5036814;28;20505;-84
2022/12/28 07:30:01;;;;;;;15.70;7.63;;;;;;;-141.97;55.31;47653.63;5037211;28;20170;-84
2022/12/28 07:32:27;;;;;;;18.17;7.90;;;;;;;-141.97;55.80;47690.16;5035319;28;20281;-84
2022/12/28 07:34:52;;;;;;;19.13;9.43;;;;;;;-141.97;55.86;47753.56;5036071;28;20173;-84
2022/12/28 07:37:18;;;;;;;21.53;11.07;;;;;;;-141.97;55.51;47745.88;5018951;28;20225;-84
2022/12/28 07:39:43;;;;;;;20.73;10.80;;;;;;;-141.97;55.22;47663.22;5037339;28;20166;-84
2022/12/28 07:42:10;;;;;;;34.50;18.00;;;;;;;-141.97;54.83;47842.00;5036263;28;20167;-84
2022/12/28 07:44:36;;;;;;;30.43;15.00;;;;;;;-141.97;54.66;47815.09;5035874;28;20194;-83
2022/12/28 07:47:02;;;;;;;48.43;24.77;;;;;;;-141.97;54.38;47665.16;5034951;28;20162;-84
2022/12/28 07:49:27;;;;;;;56.00;27.80;;;;;;;-141.97;54.78;47836.22;5035243;28;20189;-83
2022/12/28 07:51:53;;;;;;;54.33;29.03;;;;;;;-141.97;54.63;47705.53;5035222;28;20245;-85
2022/12/28 07:54:20;;;;;;;27.67;14.10;;;;;;;-141.97;54.59;47747.81;5034756;28;20166;-84
2022/12/28 07:56:45;;;;;;;62.67;20.20;;;;;;;-141.97;54.75;47743.97;5035506;28;20166;-84
2022/12/28 07:59:14;;;;;;;118.37;58.87;;;;;;;-141.97;54.79;47736.28;5035164;28;20162;-84
2022/12/28 08:01:39;;;;;;;61.80;33.40;;;;;;;-141.97;54.89;47757.41;5034978;28;20196;-84
2022/12/28 08:04:08;;;;;;;69.77;37.57;;;;;;;-141.97;55.01;47755.50;5035409;28;20197;-83
2022/12/28 08:06:36;;;;;;;77.10;42.27;;;;;;;-141.97;54.94;47734.34;5035706;28;20166;-84
2022/12/28 08:09:04;;;;;;;62.53;35.83;;;;;;;-141.97;55.09;47782.41;5035288;28;20646;-83
2022/12/28 08:11:32;;;;;;;50.30;27.07;;;;;;;-141.97;54.88;47730.50;5035113;28;20170;-85
2022/12/28 08:13:59;;;;;;;33.93;17.67;;;;;;;-141.97;54.63;47826.63;5037108;28;20177;-83
2022/12/28 08:16:27;;;;;;;32.27;17.03;;;;;;;-141.97;54.77;47720.91;5034927;28;20162;-84
2022/12/28 08:18:53;;;;;;;26.90;15.30;;;;;;;-141.97;54.57;47742.03;5034678;28;20631;-85
2022/12/28 08:21:22;;;;;;;31.37;17.40;;;;;;;-141.97;54.71;47707.44;5034914;28;20162;-85
2022/12/28 08:23:48;;;;;;;24.43;13.23;;;;;;;-141.97;54.28;47676.69;5035172;28;20205;-84
2022/12/28 08:26:17;;;;;;;19.47;12.23;;;;;;;-141.97;54.27;47722.81;5035633;28;20162;-85
2022/12/28 08:28:44;;;;;;;21.80;11.30;;;;;;;-141.97;53.37;47695.91;5035469;28;20237;-85
2022/12/28 08:31:15;;;;;;;21.13;11.53;;;;;;;-141.97;53.50;47738.19;5035579;28;20181;-85
2022/12/28 08:33:40;;;;;;;27.33;11.53;;;;;;;-141.97;53.85;47865.06;5035848;28;20197;-85
2022/12/28 08:36:08;;;;;;;21.93;11.60;;;;;;;-141.97;53.53;47669.00;5035796;28;20166;-86
2022/12/28 08:38:34;;;;;;;22.07;11.90;;;;;;;-141.97;53.83;47749.72;5034591;28;20249;-84
2022/12/28 08:41:03;;;;;;;25.57;12.60;;;;;;;-141.97;54.08;47757.41;5033892;28;20166;-83
2022/12/28 08:43:30;;;;;;;33.70;17.43;;;;;;;-141.97;54.15;47718.97;5034533;28;20240;-84
2022/12/28 08:46:01;;;;;;;22.40;11.57;;;;;;;-141.97;54.28;47615.19;5035552;28;20170;-83
2022/12/28 08:48:27;;;;;;;23.07;12.50;;;;;;;-141.97;54.46;47724.75;5035827;28;20181;-83
2022/12/28 08:50:53;;;;;;;26.27;13.33;;;;;;;-141.97;54.59;47768.94;5034791;28;20177;-82
2022/12/28 08:53:20;;;;;;;22.50;11.80;;;;;;;-141.97;54.73;47634.41;5036655;28;20162;-83
2022/12/28 08:55:46;;;;;;;21.83;11.60;;;;;;;-141.97;55.41;47782.41;5017977;28;20185;-82
2022/12/28 08:58:12;;;;;;;23.20;11.03;;;;;;;-141.97;55.49;47609.41;5034751;28;20173;-83
2022/12/28 09:00:37;;;;;;;26.30;12.07;;;;;;;-141.97;55.12;47765.09;5037114;28;20170;-83
2022/12/28 09:03:02;;;;;;;24.47;11.50;;;;;;;-141.97;55.37;47730.50;5032889;28;20202;-81
2022/12/28 09:05:28;;;;;;;23.23;11.60;;;;;;;-141.97;55.44;47826.63;5032251;28;20252;-83
2022/12/28 09:07:54;;;;;;;27.47;13.80;;;;;;;-141.97;56.72;47826.63;5032556;28;20154;-82
2022/12/28 09:10:20;;;;;;;28.70;12.80;;;;;;;-141.97;56.42;47861.22;5031998;28;20170;-81
2022/12/28 09:12:45;;;;;;;24.33;12.07;;;;;;;-141.97;56.57;47718.97;5032516;28;20220;-81
2022/12/28 09:15:10;;;;;;;31.63;13.70;;;;;;;-141.97;56.56;47747.81;5032296;28;20202;-82
2022/12/28 09:17:36;;;;;;;31.90;14.47;;;;;;;-141.97;56.94;47644.00;5032847;28;20208;-82
2022/12/28 09:20:01;;;;;;;37.03;16.70;;;;;;;-141.97;57.31;47732.44;5038617;28;20185;-82
2022/12/28 09:22:29;;;;;;;25.67;13.37;;;;;;;-141.97;57.83;47772.78;5057087;28;20154;-82
2022/12/28 09:24:54;;;;;;;27.30;13.43;;;;;;;-141.97;58.42;47759.34;5044942;28;20673;-83
2022/12/28 09:27:19;;;;;;;29.77;15.97;;;;;;;-141.97;58.66;47751.66;5035302;28;20162;-82
2022/12/28 09:29:45;;;;;;;24.03;12.70;;;;;;;-141.97;58.60;47649.78;5034497;28;20225;-83
2022/12/28 09:32:10;;;;;;;17.80;9.83;;;;;;;-141.97;58.75;47734.34;5049131;28;20182;-82
2022/12/28 09:34:36;;;;;;;23.73;11.97;;;;;;;-141.97;58.47;47738.19;5033284;28;20162;-81
2022/12/28 09:37:01;;;;;;;20.30;10.23;;;;;;;-141.97;58.62;47767.03;5032266;28;20253;-82
2022/12/28 09:39:27;;;;;;;19.27;10.00;;;;;;;-141.97;58.65;47749.72;5027453;28;20202;-81
2022/12/28 09:42:11;;;;;;;23.10;12.37;;;;;;;-141.97;58.19;47745.88;5036792;28;20155;-82
2022/12/28 09:44:50;;;;;;;17.93;9.80;;;;;;;-141.97;58.05;47763.19;5024226;28;20256;-82
2022/12/28 09:47:29;;;;;;;23.47;10.43;;;;;;;-141.97;58.47;47751.66;5015152;28;20162;-82
2022/12/28 09:50:28;;;;;;;17.40;9.57;;;;;;;-141.97;58.77;47759.34;5013599;28;20193;-82
2022/12/28 09:53:19;;;;;;;20.83;10.77;;;;;;;-141.97;58.67;47755.50;5015907;28;20198;-81
2022/12/28 09:55:52;;;;;;;25.47;12.10;;;;;;;-141.97;58.76;47765.09;5014123;28;20619;-81
2022/12/28 09:58:17;;;;;;;19.93;10.37;;;;;;;-141.97;58.84;47730.50;5014529;28;20225;-82
2022/12/28 10:00:46;;;;;;;27.30;14.83;;;;;;;-141.97;58.65;47749.72;5014740;28;20574;-82
2022/12/28 10:03:39;;;;;;;20.90;12.33;;;;;;;-141.97;58.37;47745.88;5015154;28;20179;-82
2022/12/28 10:06:25;;;;;;;23.47;12.73;;;;;;;-141.97;58.36;47761.25;4994366;28;20191;-82
2022/12/28 10:08:55;;;;;;;21.30;10.70;;;;;;;-141.97;57.78;47743.97;4992053;28;20257;-83
2022/12/28 10:11:24;;;;;;;19.23;11.40;;;;;;;-141.97;58.10;47768.94;4992465;28;20219;-82
2022/12/28 10:13:55;;;;;;;22.97;11.33;;;;;;;-141.97;58.18;47740.13;4991819;28;20226;-82
2022/12/28 10:16:22;;;;;;;23.63;10.30;;;;;;;-141.97;57.90;47772.78;4992574;28;20191;-81
2022/12/28 10:18:48;;;;;;;20.43;10.50;;;;;;;-141.97;58.38;47728.59;4995985;28;20566;-81
2022/12/28 10:21:18;;;;;;;24.13;11.70;;;;;;;-141.97;58.28;47707.44;5001606;28;20175;-86
2022/12/28 10:23:50;;;;;;;37.53;15.50;;;;;;;-141.97;58.53;47722.81;4985721;28;20722;-81
2022/12/28 10:26:17;;;;;;;22.33;12.57;;;;;;;-141.97;58.42;47745.88;4996345;28;20171;-81
2022/12/28 10:28:48;;;;;;;24.37;13.10;;;;;;;-141.97;58.78;47788.19;4994727;28;20229;-82
2022/12/28 10:31:15;;;;;;;38.30;18.73;;;;;;;-141.97;59.70;47745.88;4994863;28;20325;-82
2022/12/28 10:33:49;;;;;;;29.67;16.73;;;;;;;-141.97;59.64;47749.72;4994485;28;20206;-81
2022/12/28 10:36:17;;;;;;;26.50;15.07;;;;;;;-141.97;59.38;47772.78;4993694;28;20195;-81
2022/12/28 10:38:49;;;;;;;32.17;16.70;;;;;;;-141.97;60.06;47749.72;4994190;28;20231;-81
2022/12/28 10:41:17;;;;;;;26.90;16.50;;;;;;;-141.97;60.16;47726.66;4993636;28;20179;-81
2022/12/28 10:43:52;;;;;;;22.77;12.93;;;;;;;-141.97;60.01;47753.56;5012920;28;20206;-81
2022/12/28 10:46:18;;;;;;;27.30;13.27;;;;;;;-141.97;60.11;47730.50;5015215;28;20185;-81
2022/12/28 10:48:53;;;;;;;28.93;16.13;;;;;;;-141.97;60.07;47732.44;5016329;28;20554;-81
2022/12/28 10:51:20;;;;;;;22.00;10.80;;;;;;;-141.97;59.54;47730.50;5015108;28;20163;-82
2022/12/28 10:53:50;;;;;;;22.23;12.63;;;;;;;-141.97;59.08;47767.03;5014868;28;20623;-81
2022/12/28 10:56:23;;;;;;;20.67;10.70;;;;;;;-141.97;57.91;47730.50;5030863;28;20181;-81
2022/12/28 10:58:51;;;;;;;21.93;12.40;;;;;;;-141.97;57.76;47738.19;5015496;28;20166;-82
2022/12/28 11:01:28;;;;;;;19.67;9.97;;;;;;;-141.97;57.34;47751.66;5015476;28;20217;-82
2022/12/28 11:04:16;;;;;;;17.27;9.33;;;;;;;-141.97;57.83;47757.41;5015481;28;20178;-81
2022/12/28 11:07:25;;;;;;;18.37;10.07;;;;;;;-141.97;58.70;47734.34;5015507;28;20225;-81
2022/12/28 11:09:50;;;;;;;17.33;9.27;;;;;;;-141.97;59.96;47770.88;4993499;28;20234;-81
2022/12/28 11:12:21;;;;;;;15.90;9.40;;;;;;;-141.97;60.29;47742.03;4994027;28;20744;-81
2022/12/28 11:14:47;;;;;;;20.33;10.50;;;;;;;-141.97;60.84;47717.06;4998960;28;20198;-81
2022/12/28 11:17:18;;;;;;;16.40;9.60;;;;;;;-141.97;62.14;47753.56;4993757;28;20614;-81
2022/12/28 11:19:44;;;;;;;18.43;9.90;;;;;;;-141.97;62.72;47732.44;4995084;28;20620;-81
2022/12/28 11:22:12;;;;;;;17.53;9.30;;;;;;;-141.97;63.83;47834.31;4994338;28;20299;-81
2022/12/28 11:24:39;;;;;;;16.33;9.73;;;;;;;-141.97;64.21;47761.25;4994001;28;20195;-81
2022/12/28 11:27:05;;;;;;;17.43;9.30;;;;;;;-141.97;64.17;47751.66;4994937;28;20199;-82
2022/12/28 11:29:31;;;;;;;17.90;10.93;;;;;;;-141.97;63.42;47745.88;4992988;28;20167;-82
2022/12/28 11:32:33;;;;;;;19.43;9.80;;;;;;;-141.97;62.98;47699.75;4995177;28;20175;-82
2022/12/28 11:34:59;;;;;;;20.33;10.20;;;;;;;-141.97;62.89;47726.66;4955799;29;20729;-82
2022/12/28 11:37:25;;;;;;;17.37;9.53;;;;;;;-141.97;62.57;47743.97;4956021;28;20788;-81
2022/12/28 11:39:52;;;;;;;19.43;9.93;;;;;;;-141.97;62.53;47730.50;4956396;29;20272;-81
2022/12/28 11:42:35;;;;;;;16.73;9.87;;;;;;;-141.97;62.92;47745.88;4955789;29;20181;-81
2022/12/28 11:45:14;;;;;;;15.73;9.80;;;;;;;-141.97;63.30;47732.44;4955185;29;20708;-81